createdAt,value
2019-04-01T00:00:11.877Z,19.28
2019-04-01T00:01:11.806Z,19.28
2019-04-01T00:02:11.889Z,19.28
2019-04-01T00:03:11.862Z,19.27
2019-04-01T00:04:11.826Z,19.26
2019-04-01T00:05:11.906Z,19.27
2019-04-01T00:06:11.855Z,19.27
2019-04-01T00:07:11.898Z,19.26
2019-04-01T00:08:11.672Z,19.27
2019-04-01T00:09:11.663Z,19.26
2019-04-01T00:10:11.823Z,19.26
2019-04-01T00:11:11.902Z,19.26
2019-04-01T00:12:11.714Z,19.25
2019-04-01T00:13:11.728Z,19.27
2019-04-01T00:14:11.705Z,19.25
2019-04-01T00:15:11.727Z,19.26
2019-04-01T00:16:11.809Z,19.26
2019-04-01T00:17:11.781Z,19.26
2019-04-01T00:18:11.748Z,19.26
2019-04-01T00:19:11.882Z,19.25
2019-04-01T00:20:12.131Z,19.24
2019-04-01T00:21:11.878Z,19.25
2019-04-01T00:22:11.822Z,19.24
2019-04-01T00:23:11.960Z,19.24
2019-04-01T00:24:11.855Z,19.24
2019-04-01T00:25:12.021Z,19.24
2019-04-01T00:26:11.721Z,19.24
2019-04-01T00:27:11.682Z,19.23
2019-04-01T00:28:11.782Z,19.23
2019-04-01T00:29:11.755Z,19.24
2019-04-01T00:30:11.720Z,19.23
2019-04-01T00:31:11.732Z,19.22
2019-04-01T00:32:11.752Z,19.22
2019-04-01T00:33:11.795Z,19.22
2019-04-01T00:34:11.779Z,19.22
2019-04-01T00:35:11.757Z,19.22
2019-04-01T00:36:11.872Z,19.22
2019-04-01T00:37:11.789Z,19.21
2019-04-01T00:38:11.912Z,19.21
2019-04-01T00:39:11.844Z,19.21
2019-04-01T00:40:11.833Z,19.21
2019-04-01T00:41:11.892Z,19.2
2019-04-01T00:42:11.927Z,19.2
2019-04-01T00:43:11.874Z,19.2
2019-04-01T00:44:11.882Z,19.2
2019-04-01T00:45:11.754Z,19.19
2019-04-01T00:46:11.624Z,19.2
2019-04-01T00:47:11.666Z,19.2
2019-04-01T00:48:11.688Z,19.19
2019-04-01T00:49:11.702Z,19.19
2019-04-01T00:50:11.855Z,19.2
2019-04-01T00:51:11.783Z,19.19
2019-04-01T00:52:11.730Z,19.18
2019-04-01T00:53:11.728Z,19.18
2019-04-01T00:54:12.113Z,19.18
2019-04-01T00:55:11.915Z,19.18
2019-04-01T00:56:11.759Z,19.18
2019-04-01T00:57:11.825Z,19.17
2019-04-01T00:58:11.780Z,19.18
2019-04-01T00:59:11.800Z,19.18
2019-04-01T01:00:11.988Z,19.18
2019-04-01T01:01:11.930Z,19.17
2019-04-01T01:02:11.865Z,19.17
2019-04-01T01:03:11.638Z,19.18
2019-04-01T01:04:11.711Z,19.17
2019-04-01T01:05:11.665Z,19.17
2019-04-01T01:06:11.818Z,19.16
2019-04-01T01:07:11.710Z,19.16
2019-04-01T01:08:11.841Z,19.16
2019-04-01T01:09:11.770Z,19.15
2019-04-01T01:10:11.847Z,19.17
2019-04-01T01:11:11.761Z,19.16
2019-04-01T01:12:11.897Z,19.14
2019-04-01T01:13:11.817Z,19.15
2019-04-01T01:14:11.816Z,19.14
2019-04-01T01:15:12.184Z,19.14
2019-04-01T01:16:11.819Z,19.13
2019-04-01T01:17:11.859Z,19.13
2019-04-01T01:18:11.971Z,19.13
2019-04-01T01:19:11.853Z,19.13
2019-04-01T01:20:11.984Z,19.12
2019-04-01T01:21:11.616Z,19.13
2019-04-01T01:22:11.745Z,19.13
2019-04-01T01:23:11.704Z,19.13
2019-04-01T01:24:11.639Z,19.13
2019-04-01T01:25:11.658Z,19.12
2019-04-01T01:26:11.727Z,19.12
2019-04-01T01:27:11.864Z,19.11
2019-04-01T01:28:11.685Z,19.11
2019-04-01T01:29:11.887Z,19.11
2019-04-01T01:30:12.869Z,19.11
2019-04-01T01:31:11.892Z,19.1
2019-04-01T01:32:11.757Z,19.09
2019-04-01T01:33:11.818Z,19.11
2019-04-01T01:34:11.799Z,19.1
2019-04-01T01:35:11.807Z,19.1
2019-04-01T01:36:12.301Z,19.1
2019-04-01T01:37:11.928Z,19.09
2019-04-01T01:38:11.827Z,19.1
2019-04-01T01:39:11.621Z,19.09
2019-04-01T01:40:11.779Z,19.08
2019-04-01T01:41:11.670Z,19.09
2019-04-01T01:42:11.758Z,19.08
2019-04-01T01:43:11.753Z,19.09
2019-04-01T01:44:11.596Z,19.08
2019-04-01T01:45:11.777Z,19.08
2019-04-01T01:46:11.734Z,19.08
2019-04-01T01:47:11.751Z,19.07
2019-04-01T01:48:11.794Z,19.08
2019-04-01T01:49:11.768Z,19.06
2019-04-01T01:50:11.790Z,19.06
2019-04-01T01:51:11.843Z,19.07
2019-04-01T01:52:11.919Z,19.06
2019-04-01T01:53:11.858Z,19.06
2019-04-01T01:54:11.912Z,19.06
2019-04-01T01:55:11.859Z,19.06
2019-04-01T01:56:11.877Z,19.05
2019-04-01T01:57:11.785Z,19.06
2019-04-01T01:58:11.798Z,19.05
2019-04-01T01:59:11.793Z,19.05
2019-04-01T02:00:11.609Z,19.06
2019-04-01T02:01:11.669Z,19.05
2019-04-01T02:02:11.660Z,19.04
2019-04-01T02:03:11.693Z,19.05
2019-04-01T02:04:11.698Z,19.04
2019-04-01T02:05:11.844Z,19.05
2019-04-01T02:06:12.839Z,19.04
2019-04-01T02:07:11.747Z,19.04
2019-04-01T02:08:11.743Z,19.04
2019-04-01T02:09:11.823Z,19.02
2019-04-01T02:10:11.770Z,19.03
2019-04-01T02:11:11.746Z,19.03
2019-04-01T02:12:11.848Z,19.02
2019-04-01T02:13:12.018Z,19.02
2019-04-01T02:14:11.853Z,19.03
2019-04-01T02:15:11.640Z,19.02
2019-04-01T02:16:11.644Z,19.01
2019-04-01T02:17:11.786Z,19.02
2019-04-01T02:18:11.660Z,19.02
2019-04-01T02:19:11.706Z,19.01
2019-04-01T02:20:11.692Z,19.02
2019-04-01T02:21:11.720Z,19.01
2019-04-01T02:22:11.892Z,19.01
2019-04-01T02:23:11.741Z,19.02
2019-04-01T02:24:11.769Z,19.01
2019-04-01T02:25:11.798Z,19.01
2019-04-01T02:26:11.778Z,19.01
2019-04-01T02:27:11.935Z,19.01
2019-04-01T02:28:11.902Z,19
2019-04-01T02:29:11.968Z,19
2019-04-01T02:30:11.846Z,19
2019-04-01T02:31:11.848Z,19
2019-04-01T02:32:11.604Z,19
2019-04-01T02:33:11.581Z,18.99
2019-04-01T02:34:11.643Z,18.99
2019-04-01T02:35:11.612Z,18.99
2019-04-01T02:36:11.645Z,18.99
2019-04-01T02:37:11.805Z,18.99
2019-04-01T02:38:11.750Z,18.98
2019-04-01T02:39:11.718Z,18.98
2019-04-01T02:40:11.719Z,18.98
2019-04-01T02:41:12.214Z,18.97
2019-04-01T02:42:12.073Z,18.98
2019-04-01T02:43:11.904Z,18.98
2019-04-01T02:44:11.909Z,18.98
2019-04-01T02:45:11.873Z,18.98
2019-04-01T02:46:11.799Z,18.96
2019-04-01T02:47:11.793Z,18.96
2019-04-01T02:48:11.815Z,18.96
2019-04-01T02:49:11.923Z,18.97
2019-04-01T02:50:11.655Z,18.96
2019-04-01T02:51:11.648Z,18.96
2019-04-01T02:52:11.696Z,18.96
2019-04-01T02:53:11.811Z,18.96
2019-04-01T02:54:11.656Z,18.95
2019-04-01T02:55:11.698Z,18.96
2019-04-01T02:56:11.703Z,18.95
2019-04-01T02:57:11.720Z,18.96
2019-04-01T02:58:11.793Z,18.96
2019-04-01T02:59:11.726Z,18.95
2019-04-01T03:00:11.751Z,18.94
2019-04-01T03:01:11.870Z,18.95
2019-04-01T03:02:11.775Z,18.95
2019-04-01T03:03:11.819Z,18.95
2019-04-01T03:04:11.907Z,18.95
2019-04-01T03:05:11.817Z,18.95
2019-04-01T03:06:11.858Z,18.95
2019-04-01T03:07:11.872Z,18.95
2019-04-01T03:08:11.569Z,18.94
2019-04-01T03:09:11.624Z,18.95
2019-04-01T03:10:11.589Z,18.93
2019-04-01T03:11:11.684Z,18.95
2019-04-01T03:12:11.663Z,18.93
2019-04-01T03:13:11.831Z,18.93
2019-04-01T03:14:11.647Z,18.94
2019-04-01T03:15:11.665Z,18.93
2019-04-01T03:16:11.700Z,18.93
2019-04-01T03:17:11.887Z,18.93
2019-04-01T03:18:11.720Z,18.93
2019-04-01T03:19:11.724Z,18.92
2019-04-01T03:20:11.741Z,18.92
2019-04-01T03:21:11.774Z,18.92
2019-04-01T03:22:11.783Z,18.92
2019-04-01T03:23:11.763Z,18.92
2019-04-01T03:24:12.075Z,18.92
2019-04-01T03:25:11.664Z,18.92
2019-04-01T03:26:11.731Z,18.92
2019-04-01T03:27:11.634Z,18.91
2019-04-01T03:28:11.643Z,18.91
2019-04-01T03:29:11.628Z,18.91
2019-04-01T03:30:11.708Z,18.91
2019-04-01T03:31:11.751Z,18.91
2019-04-01T03:32:11.722Z,18.91
2019-04-01T03:33:11.746Z,18.9
2019-04-01T03:34:11.835Z,18.9
2019-04-01T03:35:11.838Z,18.9
2019-04-01T03:36:11.767Z,18.9
2019-04-01T03:37:11.858Z,18.91
2019-04-01T03:38:11.790Z,18.91
2019-04-01T03:39:11.786Z,18.91
2019-04-01T03:40:11.837Z,18.91
2019-04-01T03:41:11.846Z,18.92
2019-04-01T03:42:11.733Z,18.91
2019-04-01T03:43:11.577Z,18.92
2019-04-01T03:44:11.585Z,18.93
2019-04-01T03:45:11.638Z,18.94
2019-04-01T03:46:12.045Z,18.94
2019-04-01T03:47:12.024Z,18.95
2019-04-01T03:48:11.673Z,18.96
2019-04-01T03:49:11.670Z,18.96
2019-04-01T03:50:11.680Z,18.97
2019-04-01T03:51:11.700Z,18.98
2019-04-01T03:52:11.716Z,18.98
2019-04-01T03:53:11.783Z,18.99
2019-04-01T03:54:11.911Z,18.99
2019-04-01T03:55:11.807Z,18.99
2019-04-01T03:56:11.786Z,19.02
2019-04-01T03:57:11.763Z,19.04
2019-04-01T03:58:11.788Z,19.04
2019-04-01T03:59:11.651Z,19.07
2019-04-01T04:00:11.651Z,19.08
2019-04-01T04:01:11.623Z,19.09
2019-04-01T04:02:11.739Z,19.11
2019-04-01T04:03:11.664Z,19.13
2019-04-01T04:04:11.749Z,19.14
2019-04-01T04:05:11.681Z,19.16
2019-04-01T04:06:11.698Z,19.18
2019-04-01T04:07:11.951Z,19.19
2019-04-01T04:08:12.083Z,19.21
2019-04-01T04:09:11.810Z,19.23
2019-04-01T04:10:11.724Z,19.25
2019-04-01T04:11:11.984Z,19.26
2019-04-01T04:12:11.894Z,19.28
2019-04-01T04:13:11.918Z,19.29
2019-04-01T04:14:11.998Z,19.31
2019-04-01T04:15:11.657Z,19.32
2019-04-01T04:16:11.553Z,19.33
2019-04-01T04:17:11.600Z,19.35
2019-04-01T04:18:11.583Z,19.37
2019-04-01T04:19:11.586Z,19.39
2019-04-01T04:20:11.615Z,19.39
2019-04-01T04:21:11.688Z,19.41
2019-04-01T04:22:11.830Z,19.42
2019-04-01T04:23:11.636Z,19.45
2019-04-01T04:24:11.560Z,19.46
2019-04-01T04:25:11.667Z,19.46
2019-04-01T04:26:11.796Z,19.49
2019-04-01T04:27:11.766Z,19.49
2019-04-01T04:28:11.699Z,19.5
2019-04-01T04:29:11.724Z,19.51
2019-04-01T04:30:11.763Z,19.53
2019-04-01T04:31:11.742Z,19.53
2019-04-01T04:32:11.785Z,19.55
2019-04-01T04:33:11.766Z,19.56
2019-04-01T04:34:11.590Z,19.57
2019-04-01T04:35:11.624Z,19.58
2019-04-01T04:36:11.589Z,19.6
2019-04-01T04:37:11.627Z,19.6
2019-04-01T04:38:11.647Z,19.61
2019-04-01T04:39:11.626Z,19.62
2019-04-01T04:40:11.664Z,19.63
2019-04-01T04:41:11.693Z,19.64
2019-04-01T04:42:11.665Z,19.65
2019-04-01T04:43:11.715Z,19.66
2019-04-01T04:44:11.845Z,19.67
2019-04-01T04:45:11.722Z,19.67
2019-04-01T04:46:11.851Z,19.67
2019-04-01T04:47:11.765Z,19.68
2019-04-01T04:48:11.836Z,19.69
2019-04-01T04:49:11.778Z,19.7
2019-04-01T04:50:11.815Z,19.71
2019-04-01T04:51:11.859Z,19.71
2019-04-01T04:52:11.697Z,19.72
2019-04-01T04:53:11.704Z,19.72
2019-04-01T04:54:11.647Z,19.73
2019-04-01T04:55:11.685Z,19.74
2019-04-01T04:56:11.585Z,19.73
2019-04-01T04:57:11.622Z,19.75
2019-04-01T04:58:11.719Z,19.74
2019-04-01T04:59:11.626Z,19.74
2019-04-01T05:00:11.669Z,19.74
2019-04-01T05:01:11.728Z,19.74
2019-04-01T05:02:11.585Z,19.76
2019-04-01T05:03:11.740Z,19.76
2019-04-01T05:04:11.696Z,19.76
2019-04-01T05:05:11.755Z,19.77
2019-04-01T05:06:11.725Z,19.76
2019-04-01T05:07:11.829Z,19.78
2019-04-01T05:08:11.759Z,19.76
2019-04-01T05:09:11.903Z,19.76
2019-04-01T05:10:11.568Z,19.76
2019-04-01T05:11:11.596Z,19.76
2019-04-01T05:12:11.597Z,19.77
2019-04-01T05:13:11.598Z,19.76
2019-04-01T05:14:11.747Z,19.78
2019-04-01T05:15:11.648Z,19.78
2019-04-01T05:16:11.728Z,19.78
2019-04-01T05:17:11.765Z,19.77
2019-04-01T05:18:11.643Z,19.77
2019-04-01T05:19:11.727Z,19.76
2019-04-01T05:20:11.757Z,19.78
2019-04-01T05:21:11.708Z,19.77
2019-04-01T05:22:11.890Z,19.76
2019-04-01T05:23:11.741Z,19.77
2019-04-01T05:24:11.760Z,19.77
2019-04-01T05:25:11.869Z,19.77
2019-04-01T05:26:11.777Z,19.76
2019-04-01T05:27:11.806Z,19.77
2019-04-01T05:28:11.847Z,19.76
2019-04-01T05:29:11.657Z,19.77
2019-04-01T05:30:11.511Z,19.77
2019-04-01T05:31:14.355Z,19.76
2019-04-01T05:32:11.554Z,19.77
2019-04-01T05:33:11.612Z,19.76
2019-04-01T05:34:11.681Z,19.76
2019-04-01T05:35:11.609Z,19.75
2019-04-01T05:36:11.894Z,19.75
2019-04-01T05:37:11.701Z,19.75
2019-04-01T05:38:11.624Z,19.75
2019-04-01T05:39:11.656Z,19.75
2019-04-01T05:40:11.645Z,19.75
2019-04-01T05:41:11.656Z,19.75
2019-04-01T05:42:11.875Z,19.75
2019-04-01T05:43:11.766Z,19.74
2019-04-01T05:44:11.708Z,19.74
2019-04-01T05:45:11.729Z,19.75
2019-04-01T05:46:11.745Z,19.75
2019-04-01T05:47:11.773Z,19.75
2019-04-01T05:48:11.865Z,19.74
2019-04-01T05:49:11.652Z,19.74
2019-04-01T05:50:11.692Z,19.75
2019-04-01T05:51:11.593Z,19.75
2019-04-01T05:52:11.931Z,19.74
2019-04-01T05:53:11.579Z,19.75
2019-04-01T05:54:11.649Z,19.74
2019-04-01T05:55:11.768Z,19.74
2019-04-01T05:56:11.626Z,19.74
2019-04-01T05:57:12.151Z,19.74
2019-04-01T05:58:11.626Z,19.73
2019-04-01T05:59:11.660Z,19.73
2019-04-01T06:00:11.682Z,19.74
2019-04-01T06:01:11.679Z,19.74
2019-04-01T06:02:11.768Z,19.74
2019-04-01T06:03:11.720Z,19.74
2019-04-01T06:04:11.786Z,19.72
2019-04-01T06:05:12.082Z,19.74
2019-04-01T06:06:11.808Z,19.74
2019-04-01T06:07:11.817Z,19.74
2019-04-01T06:08:11.606Z,19.74
2019-04-01T06:09:11.511Z,19.73
2019-04-01T06:10:11.551Z,19.73
2019-04-01T06:11:11.530Z,19.74
2019-04-01T06:12:11.555Z,19.73
2019-04-01T06:13:11.571Z,19.73
2019-04-01T06:14:11.578Z,19.74
2019-04-01T06:15:11.611Z,19.73
2019-04-01T06:16:11.670Z,19.73
2019-04-01T06:17:11.672Z,19.73
2019-04-01T06:18:11.719Z,19.74
2019-04-01T06:19:11.613Z,19.74
2019-04-01T06:20:11.652Z,19.74
2019-04-01T06:21:11.701Z,19.73
2019-04-01T06:22:11.694Z,19.74
2019-04-01T06:23:11.740Z,19.74
2019-04-01T06:24:11.838Z,19.73
2019-04-01T06:25:11.874Z,19.74
2019-04-01T06:26:11.727Z,19.74
2019-04-01T06:27:12.144Z,19.74
2019-04-01T06:28:11.547Z,19.74
2019-04-01T06:29:11.556Z,19.74
2019-04-01T06:30:11.673Z,19.74
2019-04-01T06:31:11.660Z,19.74
2019-04-01T06:32:11.693Z,19.74
2019-04-01T06:33:11.663Z,19.75
2019-04-01T06:34:11.593Z,19.75
2019-04-01T06:35:11.631Z,19.75
2019-04-01T06:36:11.625Z,19.75
2019-04-01T06:37:11.643Z,19.75
2019-04-01T06:38:11.778Z,19.75
2019-04-01T06:39:11.987Z,19.76
2019-04-01T06:40:11.734Z,19.76
2019-04-01T06:41:12.136Z,19.76
2019-04-01T06:42:11.949Z,19.76
2019-04-01T06:43:11.851Z,19.76
2019-04-01T06:44:11.807Z,19.75
2019-04-01T06:45:11.774Z,19.76
2019-04-01T06:46:11.984Z,19.76
2019-04-01T06:47:11.661Z,19.77
2019-04-01T06:48:11.574Z,19.78
2019-04-01T06:49:11.531Z,19.77
2019-04-01T06:50:11.555Z,19.77
2019-04-01T06:51:11.600Z,19.77
2019-04-01T06:52:11.542Z,19.76
2019-04-01T06:53:11.558Z,19.77
2019-04-01T06:54:11.575Z,19.77
2019-04-01T06:55:11.938Z,19.78
2019-04-01T06:56:11.771Z,19.77
2019-04-01T06:57:11.795Z,19.78
2019-04-01T06:58:11.988Z,19.78
2019-04-01T06:59:11.783Z,19.78
2019-04-01T07:00:11.787Z,19.78
2019-04-01T07:01:11.673Z,19.78
2019-04-01T07:02:11.687Z,19.79
2019-04-01T07:03:11.954Z,19.78
2019-04-01T07:04:11.811Z,19.79
2019-04-01T07:05:12.653Z,19.79
2019-04-01T07:06:11.507Z,19.79
2019-04-01T07:07:18.602Z,19.8
2019-04-01T07:08:11.636Z,19.8
2019-04-01T07:09:11.569Z,19.8
2019-04-01T07:10:11.555Z,19.8
2019-04-01T07:11:11.589Z,19.81
2019-04-01T07:12:11.614Z,19.8
2019-04-01T07:13:11.647Z,19.8
2019-04-01T07:14:11.678Z,19.8
2019-04-01T07:15:11.623Z,19.8
2019-04-01T07:16:15.585Z,19.8
2019-04-01T07:17:11.662Z,19.81
2019-04-01T07:18:11.745Z,19.81
2019-04-01T07:19:11.833Z,19.8
2019-04-01T07:20:11.703Z,19.81
2019-04-01T07:21:11.725Z,19.81
2019-04-01T07:22:12.077Z,19.8
2019-04-01T07:23:11.756Z,19.81
2019-04-01T07:24:11.884Z,19.81
2019-04-01T07:25:11.986Z,19.81
2019-04-01T07:26:11.489Z,19.81
2019-04-01T07:27:11.538Z,19.81
2019-04-01T07:28:11.613Z,19.81
2019-04-01T07:29:11.565Z,19.82
2019-04-01T07:30:11.578Z,19.81
2019-04-01T07:31:11.680Z,19.8
2019-04-01T07:32:14.406Z,19.81
2019-04-01T07:33:11.607Z,19.82
2019-04-01T07:34:11.684Z,19.81
2019-04-01T07:35:11.629Z,19.81
2019-04-01T07:36:11.657Z,19.81
2019-04-01T07:37:11.903Z,19.81
2019-04-01T07:38:11.736Z,19.82
2019-04-01T07:39:11.839Z,19.81
2019-04-01T07:40:13.866Z,19.82
2019-04-01T07:41:11.746Z,19.82
2019-04-01T07:42:11.713Z,19.82
2019-04-01T07:43:14.618Z,19.82
2019-04-01T07:44:11.518Z,19.82
2019-04-01T07:45:11.551Z,19.82
2019-04-01T07:46:11.547Z,19.82
2019-04-01T07:47:11.803Z,19.82
2019-04-01T07:48:12.627Z,19.82
2019-04-01T07:49:11.636Z,19.82
2019-04-01T07:50:12.381Z,19.82
2019-04-01T07:51:11.772Z,19.83
2019-04-01T07:52:11.736Z,19.82
2019-04-01T07:53:11.698Z,19.83
2019-04-01T07:54:11.673Z,19.83
2019-04-01T07:55:11.691Z,19.82
2019-04-01T07:56:11.729Z,19.84
2019-04-01T07:57:11.715Z,19.82
2019-04-01T07:58:11.760Z,19.83
2019-04-01T07:59:11.744Z,19.83
2019-04-01T08:00:11.475Z,19.83
2019-04-01T08:01:11.583Z,19.83
2019-04-01T08:02:11.474Z,19.84
2019-04-01T08:03:11.635Z,19.83
2019-04-01T08:04:11.636Z,19.83
2019-04-01T08:05:11.542Z,19.83
2019-04-01T08:06:11.556Z,19.84
2019-04-01T08:07:13.447Z,19.84
2019-04-01T08:08:11.619Z,19.84
2019-04-01T08:09:11.808Z,19.84
2019-04-01T08:10:11.607Z,19.84
2019-04-01T08:11:11.717Z,19.83
2019-04-01T08:12:11.623Z,19.83
2019-04-01T08:13:11.649Z,19.83
2019-04-01T08:14:11.691Z,19.84
2019-04-01T08:15:11.671Z,19.83
2019-04-01T08:16:11.715Z,19.84
2019-04-01T08:17:11.539Z,19.84
2019-04-01T08:18:11.509Z,19.84
2019-04-01T08:19:11.541Z,19.84
2019-04-01T08:20:11.522Z,19.84
2019-04-01T08:21:11.558Z,19.83
2019-04-01T08:22:11.607Z,19.83
2019-04-01T08:23:11.599Z,19.83
2019-04-01T08:24:11.704Z,19.84
2019-04-01T08:25:11.650Z,19.84
2019-04-01T08:26:11.612Z,19.84
2019-04-01T08:27:11.655Z,19.84
2019-04-01T08:28:11.626Z,19.84
2019-04-01T08:29:11.728Z,19.84
2019-04-01T08:30:11.741Z,19.84
2019-04-01T08:31:13.393Z,19.84
2019-04-01T08:32:13.825Z,19.85
2019-04-01T08:33:11.956Z,19.84
2019-04-01T08:34:11.479Z,19.83
2019-04-01T08:35:11.484Z,19.84
2019-04-01T08:36:11.538Z,19.84
2019-04-01T08:37:11.505Z,19.85
2019-04-01T08:38:11.494Z,19.84
2019-04-01T08:39:11.517Z,19.84
2019-04-01T08:40:11.557Z,19.85
2019-04-01T08:41:11.569Z,19.84
2019-04-01T08:42:11.592Z,19.85
2019-04-01T08:43:11.767Z,19.85
2019-04-01T08:44:11.593Z,19.85
2019-04-01T08:45:11.613Z,19.85
2019-04-01T08:46:11.707Z,19.85
2019-04-01T08:47:11.716Z,19.84
2019-04-01T08:48:11.744Z,19.85
2019-04-01T08:49:11.772Z,19.84
2019-04-01T08:50:11.773Z,19.85
2019-04-01T08:51:11.692Z,19.84
2019-04-01T08:52:11.574Z,19.85
2019-04-01T08:53:11.626Z,19.84
2019-04-01T08:54:11.658Z,19.84
2019-04-01T08:55:11.536Z,19.85
2019-04-01T08:56:11.570Z,19.84
2019-04-01T08:57:11.583Z,19.85
2019-04-01T08:58:11.641Z,19.85
2019-04-01T08:59:11.593Z,19.85
2019-04-01T09:00:11.604Z,19.85
2019-04-01T09:01:11.769Z,19.84
2019-04-01T09:02:17.943Z,19.85
2019-04-01T09:03:11.717Z,19.85
2019-04-01T09:04:11.666Z,19.85
2019-04-01T09:05:11.702Z,19.84
2019-04-01T09:06:11.837Z,19.84
2019-04-01T09:07:11.701Z,19.84
2019-04-01T09:08:11.484Z,19.84
2019-04-01T09:09:11.456Z,19.84
2019-04-01T09:10:11.531Z,19.84
2019-04-01T09:11:11.523Z,19.84
2019-04-01T09:12:11.652Z,19.85
2019-04-01T09:13:11.604Z,19.84
2019-04-01T09:14:11.818Z,19.84
2019-04-01T09:15:11.523Z,19.84
2019-04-01T09:16:11.570Z,19.85
2019-04-01T09:17:11.575Z,19.83
2019-04-01T09:18:11.577Z,19.84
2019-04-01T09:19:11.583Z,19.85
2019-04-01T09:20:11.611Z,19.84
2019-04-01T09:21:11.786Z,19.84
2019-04-01T09:22:11.808Z,19.84
2019-04-01T09:23:11.664Z,19.84
2019-04-01T09:24:11.707Z,19.83
2019-04-01T09:25:11.570Z,19.83
2019-04-01T09:26:11.588Z,19.82
2019-04-01T09:27:11.496Z,19.83
2019-04-01T09:28:11.522Z,19.84
2019-04-01T09:29:11.632Z,19.83
2019-04-01T09:30:11.645Z,19.84
2019-04-01T09:31:11.667Z,19.83
2019-04-01T09:32:11.672Z,19.84
2019-04-01T09:33:11.567Z,19.83
2019-04-01T09:34:11.707Z,19.82
2019-04-01T09:35:11.977Z,19.82
2019-04-01T09:36:13.539Z,19.84
2019-04-01T09:37:11.681Z,19.83
2019-04-01T09:38:11.666Z,19.82
2019-04-01T09:39:11.693Z,19.83
2019-04-01T09:40:11.932Z,19.82
2019-04-01T09:41:13.209Z,19.83
2019-04-01T09:42:11.429Z,19.84
2019-04-01T09:43:14.049Z,19.83
2019-04-01T09:44:11.484Z,19.83
2019-04-01T09:45:11.470Z,19.84
2019-04-01T09:46:11.499Z,19.83
2019-04-01T09:47:11.486Z,19.83
2019-04-01T09:48:11.526Z,19.84
2019-04-01T09:49:11.541Z,19.83
2019-04-01T09:50:11.667Z,19.84
2019-04-01T09:51:11.556Z,19.84
2019-04-01T09:52:11.604Z,19.83
2019-04-01T09:53:11.587Z,19.83
2019-04-01T09:54:11.721Z,19.84
2019-04-01T09:55:11.468Z,19.84
2019-04-01T09:56:12.586Z,19.84
2019-04-01T09:57:17.618Z,19.84
2019-04-01T09:58:11.769Z,19.84
2019-04-01T09:59:11.542Z,19.83
2019-04-01T10:00:11.559Z,19.83
2019-04-01T10:01:11.612Z,19.84
2019-04-01T10:02:12.100Z,19.83
2019-04-01T10:03:11.562Z,19.83
2019-04-01T10:04:11.551Z,19.83
2019-04-01T10:05:11.593Z,19.83
2019-04-01T10:06:11.699Z,19.83
2019-04-01T10:07:11.582Z,19.83
2019-04-01T10:08:11.665Z,19.84
2019-04-01T10:09:11.625Z,19.83
2019-04-01T10:10:11.625Z,19.84
2019-04-01T10:11:12.718Z,19.84
2019-04-01T10:12:11.774Z,19.84
2019-04-01T10:13:11.751Z,19.84
2019-04-01T10:14:11.742Z,19.84
2019-04-01T10:15:11.755Z,19.84
2019-04-01T10:16:11.438Z,19.84
2019-04-01T10:17:11.528Z,19.85
2019-04-01T10:18:11.687Z,19.85
2019-04-01T10:19:11.682Z,19.84
2019-04-01T10:20:11.503Z,19.84
2019-04-01T10:21:11.551Z,19.84
2019-04-01T10:22:11.632Z,19.83
2019-04-01T10:23:11.563Z,19.84
2019-04-01T10:24:11.591Z,19.84
2019-04-01T10:25:11.538Z,19.84
2019-04-01T10:26:11.571Z,19.84
2019-04-01T10:27:15.388Z,19.83
2019-04-01T10:28:24.357Z,19.83
2019-04-01T10:29:23.893Z,19.84
2019-04-01T10:30:20.431Z,19.84
2019-04-01T10:31:11.682Z,19.84
2019-04-01T10:32:11.602Z,19.84
2019-04-01T10:33:11.643Z,19.84
2019-04-01T10:34:11.681Z,19.84
2019-04-01T10:35:11.536Z,19.84
2019-04-01T10:36:11.489Z,19.85
2019-04-01T10:37:11.564Z,19.84
2019-04-01T10:38:11.495Z,19.84
2019-04-01T10:39:11.667Z,19.84
2019-04-01T10:40:11.645Z,19.85
2019-04-01T10:41:11.650Z,19.85
2019-04-01T10:42:11.667Z,19.85
2019-04-01T10:43:11.588Z,19.85
2019-04-01T10:44:11.606Z,19.84
2019-04-01T10:45:32.367Z,19.86
2019-04-01T10:46:16.312Z,19.86
2019-04-01T10:47:11.658Z,19.86
2019-04-01T10:48:11.651Z,19.86
2019-04-01T10:49:11.730Z,19.87
2019-04-01T10:50:12.096Z,19.86
2019-04-01T10:51:11.699Z,19.87
2019-04-01T10:52:11.765Z,19.87
2019-04-01T10:53:11.475Z,19.87
2019-04-01T10:54:11.505Z,19.88
2019-04-01T10:55:11.546Z,19.88
2019-04-01T10:56:11.555Z,19.89
2019-04-01T10:57:11.510Z,19.89
2019-04-01T10:58:11.504Z,19.89
2019-04-01T10:59:11.548Z,19.89
2019-04-01T11:00:11.678Z,19.89
2019-04-01T11:01:11.812Z,19.9
2019-04-01T11:02:11.711Z,19.9
2019-04-01T11:03:11.566Z,19.9
2019-04-01T11:04:11.715Z,19.9
2019-04-01T11:05:11.637Z,19.9
2019-04-01T11:06:11.663Z,19.9
2019-04-01T11:07:11.728Z,19.91
2019-04-01T11:08:11.665Z,19.91
2019-04-01T11:09:11.697Z,19.91
2019-04-01T11:10:12.032Z,19.92
2019-04-01T11:11:11.449Z,19.91
2019-04-01T11:12:11.474Z,19.91
2019-04-01T11:13:11.471Z,19.91
2019-04-01T11:14:11.614Z,19.92
2019-04-01T11:15:15.079Z,19.92
2019-04-01T11:16:11.530Z,19.92
2019-04-01T11:17:11.619Z,19.92
2019-04-01T11:18:12.174Z,19.92
2019-04-01T11:19:11.609Z,19.92
2019-04-01T11:20:11.687Z,19.93
2019-04-01T11:21:11.737Z,19.92
2019-04-01T11:22:11.646Z,19.91
2019-04-01T11:23:12.014Z,19.91
2019-04-01T11:24:11.762Z,19.92
2019-04-01T11:25:11.788Z,19.91
2019-04-01T11:26:11.679Z,19.91
2019-04-01T11:27:11.493Z,19.92
2019-04-01T11:28:11.411Z,19.9
2019-04-01T11:29:11.427Z,19.92
2019-04-01T11:30:13.665Z,19.93
2019-04-01T11:31:11.619Z,19.92
2019-04-01T11:32:13.309Z,19.91
2019-04-01T11:33:11.639Z,19.9
2019-04-01T11:34:11.525Z,19.9
2019-04-01T11:35:11.680Z,19.91
2019-04-01T11:36:11.652Z,19.93
2019-04-01T11:37:11.604Z,19.93
2019-04-01T11:38:11.621Z,19.94
2019-04-01T11:39:11.589Z,19.94
2019-04-01T11:40:12.448Z,19.95
2019-04-01T11:41:11.665Z,19.95
2019-04-01T11:42:11.821Z,19.96
2019-04-01T11:43:19.615Z,19.96
2019-04-01T11:44:11.504Z,19.97
2019-04-01T11:45:11.497Z,19.97
2019-04-01T11:46:12.604Z,19.99
2019-04-01T11:47:11.703Z,20
2019-04-01T11:48:11.610Z,20
2019-04-01T11:49:11.536Z,20
2019-04-01T11:50:11.529Z,20
2019-04-01T11:51:11.532Z,20.01
2019-04-01T11:52:12.647Z,20
2019-04-01T11:53:11.572Z,20.01
2019-04-01T11:54:11.594Z,20.01
2019-04-01T11:55:11.609Z,20.02
2019-04-01T11:56:11.694Z,20.02
2019-04-01T11:57:11.609Z,20.02
2019-04-01T11:58:11.719Z,20.03
2019-04-01T11:59:11.663Z,20.02
2019-04-01T12:00:13.179Z,20.02
2019-04-01T12:01:11.644Z,20.02
2019-04-01T12:02:11.390Z,20.02
2019-04-01T12:03:11.409Z,20.02
2019-04-01T12:04:11.422Z,20.01
2019-04-01T12:05:11.405Z,20.01
2019-04-01T12:06:11.841Z,20
2019-04-01T12:07:11.604Z,20
2019-04-01T12:08:11.459Z,20
2019-04-01T12:09:11.654Z,20
2019-04-01T12:10:11.493Z,20
2019-04-01T12:11:11.503Z,20
2019-04-01T12:12:23.239Z,19.99
2019-04-01T12:13:11.672Z,19.99
2019-04-01T12:14:11.682Z,19.98
2019-04-01T12:15:12.506Z,19.99
2019-04-01T12:16:11.593Z,19.99
2019-04-01T12:17:11.711Z,19.98
2019-04-01T12:18:11.667Z,19.98
2019-04-01T12:19:11.425Z,19.98
2019-04-01T12:20:11.511Z,19.98
2019-04-01T12:21:11.501Z,19.99
2019-04-01T12:22:11.603Z,19.99
2019-04-01T12:23:11.544Z,19.99
2019-04-01T12:24:11.481Z,19.98
2019-04-01T12:25:11.540Z,19.99
2019-04-01T12:26:15.213Z,19.98
2019-04-01T12:27:11.513Z,19.98
2019-04-01T12:28:11.895Z,19.99
2019-04-01T12:29:12.101Z,19.98
2019-04-01T12:30:11.560Z,19.98
2019-04-01T12:31:12.898Z,19.98
2019-04-01T12:32:11.730Z,19.98
2019-04-01T12:33:11.594Z,19.98
2019-04-01T12:34:11.686Z,19.98
2019-04-01T12:35:11.640Z,19.98
2019-04-01T12:36:11.857Z,19.99
2019-04-01T12:37:11.372Z,19.98
2019-04-01T12:38:11.443Z,19.99
2019-04-01T12:39:11.480Z,19.98
2019-04-01T12:40:11.451Z,19.99
2019-04-01T12:41:11.644Z,19.98
2019-04-01T12:42:11.450Z,19.98
2019-04-01T12:43:11.482Z,19.98
2019-04-01T12:44:11.693Z,19.97
2019-04-01T12:45:11.550Z,19.97
2019-04-01T12:46:11.527Z,19.98
2019-04-01T12:47:11.539Z,19.97
2019-04-01T12:48:11.569Z,19.96
2019-04-01T12:49:11.521Z,20.01
2019-04-01T12:50:13.478Z,20.01
2019-04-01T12:51:11.562Z,20.01
2019-04-01T12:52:11.665Z,20.01
2019-04-01T12:53:11.706Z,20.03
2019-04-01T12:54:11.387Z,20.03
2019-04-01T12:55:11.561Z,20.05